sensor_id;sensor_type;location;lat;lon;timestamp;temperature;humidity
52030;DHT22;38043;53.224;6.580;2023-06-01T00:00:49;11.40;99.90
52030;DHT22;38043;53.224;6.580;2023-06-01T00:03:15;11.30;99.90
52030;DHT22;38043;53.224;6.580;2023-06-01T00:05:40;11.30;99.90
52030;DHT22;38043;53.224;6.580;2023-06-01T00:08:06;11.40;99.90
52030;DHT22;38043;53.224;6.580;2023-06-01T00:10:32;11.30;99.90
52030;DHT22;38043;53.224;6.580;2023-06-01T00:12:58;11.30;99.90
52030;DHT22;38043;53.224;6.580;2023-06-01T00:15:23;11.40;99.90
52030;DHT22;38043;53.224;6.580;2023-06-01T00:17:49;11.40;99.90
52030;DHT22;38043;53.224;6.580;2023-06-01T00:20:17;11.40;99.90
52030;DHT22;38043;53.224;6.580;2023-06-01T00:22:43;11.40;99.90
52030;DHT22;38043;53.224;6.580;2023-06-01T00:25:09;11.40;99.90
52030;DHT22;38043;53.224;6.580;2023-06-01T00:27:34;11.40;99.90
52030;DHT22;38043;53.224;6.580;2023-06-01T00:30:00;11.40;99.90
52030;DHT22;38043;53.224;6.580;2023-06-01T00:32:26;11.30;99.90
52030;DHT22;38043;53.224;6.580;2023-06-01T00:34:51;11.30;99.90
52030;DHT22;38043;53.224;6.580;2023-06-01T00:37:19;11.30;99.90
52030;DHT22;38043;53.224;6.580;2023-06-01T00:39:45;11.30;99.90
52030;DHT22;38043;53.224;6.580;2023-06-01T00:42:10;11.30;99.90
52030;DHT22;38043;53.224;6.580;2023-06-01T00:44:36;11.30;99.90
52030;DHT22;38043;53.224;6.580;2023-06-01T00:47:01;11.20;99.90
52030;DHT22;38043;53.224;6.580;2023-06-01T00:49:27;11.30;99.90
52030;DHT22;38043;53.224;6.580;2023-06-01T00:51:53;11.30;99.90
52030;DHT22;38043;53.224;6.580;2023-06-01T00:54:19;11.30;99.90
52030;DHT22;38043;53.224;6.580;2023-06-01T00:56:44;11.20;99.90
52030;DHT22;38043;53.224;6.580;2023-06-01T00:59:11;11.30;99.90
52030;DHT22;38043;53.224;6.580;2023-06-01T01:01:37;11.30;99.90
52030;DHT22;38043;53.224;6.580;2023-06-01T01:04:02;11.30;99.90
52030;DHT22;38043;53.224;6.580;2023-06-01T01:06:34;11.20;99.90
52030;DHT22;38043;53.224;6.580;2023-06-01T01:11:43;11.30;99.90
52030;DHT22;38043;53.224;6.580;2023-06-01T01:14:14;11.30;99.90
52030;DHT22;38043;53.224;6.580;2023-06-01T01:19:17;11.30;99.90
52030;DHT22;38043;53.224;6.580;2023-06-01T01:21:48;11.30;99.90
52030;DHT22;38043;53.224;6.580;2023-06-01T01:29:28;11.30;99.90
52030;DHT22;38043;53.224;6.580;2023-06-01T01:31:58;11.20;99.90
52030;DHT22;38043;53.224;6.580;2023-06-01T01:34:25;11.30;99.90
52030;DHT22;38043;53.224;6.580;2023-06-01T01:36:52;11.20;99.90
52030;DHT22;38043;53.224;6.580;2023-06-01T01:39:18;11.20;99.90
52030;DHT22;38043;53.224;6.580;2023-06-01T01:41:43;11.30;99.90
52030;DHT22;38043;53.224;6.580;2023-06-01T01:44:09;11.20;99.90
52030;DHT22;38043;53.224;6.580;2023-06-01T01:46:47;11.20;99.90
52030;DHT22;38043;53.224;6.580;2023-06-01T01:49:30;11.20;99.90
52030;DHT22;38043;53.224;6.580;2023-06-01T01:52:04;11.20;99.90
52030;DHT22;38043;53.224;6.580;2023-06-01T01:54:32;11.20;99.90
52030;DHT22;38043;53.224;6.580;2023-06-01T01:57:00;11.20;99.90
52030;DHT22;38043;53.224;6.580;2023-06-01T01:59:26;11.10;99.90
52030;DHT22;38043;53.224;6.580;2023-06-01T02:01:52;11.20;99.90
52030;DHT22;38043;53.224;6.580;2023-06-01T02:04:18;11.20;99.90
52030;DHT22;38043;53.224;6.580;2023-06-01T02:06:43;11.20;99.90
52030;DHT22;38043;53.224;6.580;2023-06-01T02:09:09;11.10;99.90
52030;DHT22;38043;53.224;6.580;2023-06-01T02:11:35;11.10;99.90
52030;DHT22;38043;53.224;6.580;2023-06-01T02:14:01;11.20;99.90
52030;DHT22;38043;53.224;6.580;2023-06-01T02:16:26;11.20;99.90
52030;DHT22;38043;53.224;6.580;2023-06-01T02:18:52;11.20;99.90
52030;DHT22;38043;53.224;6.580;2023-06-01T02:21:17;11.20;99.90
52030;DHT22;38043;53.224;6.580;2023-06-01T02:23:43;11.20;99.90
52030;DHT22;38043;53.224;6.580;2023-06-01T02:26:09;11.30;99.90
52030;DHT22;38043;53.224;6.580;2023-06-01T02:28:37;11.20;99.90
52030;DHT22;38043;53.224;6.580;2023-06-01T02:31:06;11.20;99.90
52030;DHT22;38043;53.224;6.580;2023-06-01T02:33:32;11.20;99.90
52030;DHT22;38043;53.224;6.580;2023-06-01T02:35:58;11.20;99.90
52030;DHT22;38043;53.224;6.580;2023-06-01T02:38:23;11.20;99.90
52030;DHT22;38043;53.224;6.580;2023-06-01T02:40:49;11.20;99.90
52030;DHT22;38043;53.224;6.580;2023-06-01T02:43:14;11.20;99.90
52030;DHT22;38043;53.224;6.580;2023-06-01T02:45:40;11.20;99.90
52030;DHT22;38043;53.224;6.580;2023-06-01T02:48:06;11.20;99.90
52030;DHT22;38043;53.224;6.580;2023-06-01T02:50:31;11.30;99.90
52030;DHT22;38043;53.224;6.580;2023-06-01T02:52:57;11.30;99.90
52030;DHT22;38043;53.224;6.580;2023-06-01T02:55:22;11.30;99.90
52030;DHT22;38043;53.224;6.580;2023-06-01T02:57:48;11.20;99.90
52030;DHT22;38043;53.224;6.580;2023-06-01T03:00:13;11.30;99.90
52030;DHT22;38043;53.224;6.580;2023-06-01T03:02:42;11.30;99.90
52030;DHT22;38043;53.224;6.580;2023-06-01T03:05:08;11.20;99.90
52030;DHT22;38043;53.224;6.580;2023-06-01T03:07:34;11.20;99.90
52030;DHT22;38043;53.224;6.580;2023-06-01T03:09:59;11.30;99.90
52030;DHT22;38043;53.224;6.580;2023-06-01T03:12:25;11.30;99.90
52030;DHT22;38043;53.224;6.580;2023-06-01T03:14:50;11.30;99.90
52030;DHT22;38043;53.224;6.580;2023-06-01T03:17:16;11.20;99.90
52030;DHT22;38043;53.224;6.580;2023-06-01T03:19:41;11.20;99.90
52030;DHT22;38043;53.224;6.580;2023-06-01T03:22:07;11.20;99.90
52030;DHT22;38043;53.224;6.580;2023-06-01T03:24:33;11.20;99.90
52030;DHT22;38043;53.224;6.580;2023-06-01T03:26:59;11.20;99.90
52030;DHT22;38043;53.224;6.580;2023-06-01T03:29:26;11.20;99.90
52030;DHT22;38043;53.224;6.580;2023-06-01T03:31:51;11.20;99.90
52030;DHT22;38043;53.224;6.580;2023-06-01T03:34:17;11.20;99.90
52030;DHT22;38043;53.224;6.580;2023-06-01T03:36:43;11.20;99.90
52030;DHT22;38043;53.224;6.580;2023-06-01T03:39:13;11.20;99.90
52030;DHT22;38043;53.224;6.580;2023-06-01T03:41:41;11.20;99.90
52030;DHT22;38043;53.224;6.580;2023-06-01T03:44:07;11.20;99.90
52030;DHT22;38043;53.224;6.580;2023-06-01T03:46:33;11.20;99.90
52030;DHT22;38043;53.224;6.580;2023-06-01T03:48:58;11.30;99.90
52030;DHT22;38043;53.224;6.580;2023-06-01T03:51:24;11.30;99.90
52030;DHT22;38043;53.224;6.580;2023-06-01T03:53:49;11.20;99.90
52030;DHT22;38043;53.224;6.580;2023-06-01T03:56:15;11.30;99.90
52030;DHT22;38043;53.224;6.580;2023-06-01T03:58:41;11.30;99.90
52030;DHT22;38043;53.224;6.580;2023-06-01T04:01:07;11.30;99.90
52030;DHT22;38043;53.224;6.580;2023-06-01T04:03:33;11.30;99.90
52030;DHT22;38043;53.224;6.580;2023-06-01T04:05:59;11.20;99.90
52030;DHT22;38043;53.224;6.580;2023-06-01T04:08:25;11.30;99.90
52030;DHT22;38043;53.224;6.580;2023-06-01T04:10:51;11.50;99.90
52030;DHT22;38043;53.224;6.580;2023-06-01T04:13:16;11.30;99.90
52030;DHT22;38043;53.224;6.580;2023-06-01T04:15:42;11.20;99.90
52030;DHT22;38043;53.224;6.580;2023-06-01T04:18:07;11.30;99.90
52030;DHT22;38043;53.224;6.580;2023-06-01T04:20:33;11.20;99.90
52030;DHT22;38043;53.224;6.580;2023-06-01T04:23:00;11.30;99.90
52030;DHT22;38043;53.224;6.580;2023-06-01T04:25:25;11.20;99.90
52030;DHT22;38043;53.224;6.580;2023-06-01T04:27:51;11.30;99.90
52030;DHT22;38043;53.224;6.580;2023-06-01T04:30:17;11.30;99.90
52030;DHT22;38043;53.224;6.580;2023-06-01T04:32:43;11.30;99.90
52030;DHT22;38043;53.224;6.580;2023-06-01T04:35:13;11.30;99.90
52030;DHT22;38043;53.224;6.580;2023-06-01T04:37:39;11.30;99.90
52030;DHT22;38043;53.224;6.580;2023-06-01T04:40:06;11.40;99.90
52030;DHT22;38043;53.224;6.580;2023-06-01T04:42:34;11.20;99.90
52030;DHT22;38043;53.224;6.580;2023-06-01T04:45:00;11.20;99.90
52030;DHT22;38043;53.224;6.580;2023-06-01T04:47:30;11.20;99.90
52030;DHT22;38043;53.224;6.580;2023-06-01T04:49:56;11.10;99.90
52030;DHT22;38043;53.224;6.580;2023-06-01T04:52:22;11.20;99.90
52030;DHT22;38043;53.224;6.580;2023-06-01T04:54:51;11.20;99.90
52030;DHT22;38043;53.224;6.580;2023-06-01T04:57:16;11.30;99.90
52030;DHT22;38043;53.224;6.580;2023-06-01T04:59:44;11.20;99.90
52030;DHT22;38043;53.224;6.580;2023-06-01T05:02:09;11.20;99.90
52030;DHT22;38043;53.224;6.580;2023-06-01T05:04:35;11.20;99.90
52030;DHT22;38043;53.224;6.580;2023-06-01T05:07:01;11.20;99.90
52030;DHT22;38043;53.224;6.580;2023-06-01T05:09:27;11.20;99.90
52030;DHT22;38043;53.224;6.580;2023-06-01T05:11:52;11.20;99.90
52030;DHT22;38043;53.224;6.580;2023-06-01T05:14:18;11.30;99.90
52030;DHT22;38043;53.224;6.580;2023-06-01T05:16:46;11.30;99.90
52030;DHT22;38043;53.224;6.580;2023-06-01T05:19:24;11.30;99.90
52030;DHT22;38043;53.224;6.580;2023-06-01T05:22:16;11.20;99.90
52030;DHT22;38043;53.224;6.580;2023-06-01T05:24:42;11.20;99.90
52030;DHT22;38043;53.224;6.580;2023-06-01T05:27:07;11.20;99.90
52030;DHT22;38043;53.224;6.580;2023-06-01T05:29:33;11.20;99.90
52030;DHT22;38043;53.224;6.580;2023-06-01T05:31:58;11.20;99.90
52030;DHT22;38043;53.224;6.580;2023-06-01T05:34:24;11.30;99.90
52030;DHT22;38043;53.224;6.580;2023-06-01T05:36:50;11.20;99.90
52030;DHT22;38043;53.224;6.580;2023-06-01T05:39:15;11.20;99.90
52030;DHT22;38043;53.224;6.580;2023-06-01T05:41:41;11.30;99.90
52030;DHT22;38043;53.224;6.580;2023-06-01T05:44:06;11.30;99.90
52030;DHT22;38043;53.224;6.580;2023-06-01T05:46:33;11.30;99.90
52030;DHT22;38043;53.224;6.580;2023-06-01T05:48:58;11.30;99.90
52030;DHT22;38043;53.224;6.580;2023-06-01T05:51:24;11.30;99.90
52030;DHT22;38043;53.224;6.580;2023-06-01T05:53:49;11.30;99.90
52030;DHT22;38043;53.224;6.580;2023-06-01T05:56:15;11.60;99.90
52030;DHT22;38043;53.224;6.580;2023-06-01T05:58:42;11.30;99.90
52030;DHT22;38043;53.224;6.580;2023-06-01T06:01:08;11.40;99.90
52030;DHT22;38043;53.224;6.580;2023-06-01T06:03:34;11.40;99.90
52030;DHT22;38043;53.224;6.580;2023-06-01T06:06:00;11.50;99.90
52030;DHT22;38043;53.224;6.580;2023-06-01T06:08:26;11.50;99.90
52030;DHT22;38043;53.224;6.580;2023-06-01T06:10:52;11.40;99.90
52030;DHT22;38043;53.224;6.580;2023-06-01T06:13:18;11.50;99.90
52030;DHT22;38043;53.224;6.580;2023-06-01T06:15:43;11.50;99.90
52030;DHT22;38043;53.224;6.580;2023-06-01T06:18:09;11.50;99.90
52030;DHT22;38043;53.224;6.580;2023-06-01T06:20:34;11.50;99.90
52030;DHT22;38043;53.224;6.580;2023-06-01T06:23:00;11.50;99.90
52030;DHT22;38043;53.224;6.580;2023-06-01T06:25:25;11.50;99.90
52030;DHT22;38043;53.224;6.580;2023-06-01T06:27:51;11.50;99.90
52030;DHT22;38043;53.224;6.580;2023-06-01T06:30:16;11.50;99.90
52030;DHT22;38043;53.224;6.580;2023-06-01T06:32:42;11.40;99.90
52030;DHT22;38043;53.224;6.580;2023-06-01T06:35:08;11.60;99.90
52030;DHT22;38043;53.224;6.580;2023-06-01T06:37:38;11.50;99.90
52030;DHT22;38043;53.224;6.580;2023-06-01T06:40:04;11.50;99.90
52030;DHT22;38043;53.224;6.580;2023-06-01T06:42:31;11.50;99.90
52030;DHT22;38043;53.224;6.580;2023-06-01T06:44:57;11.50;99.90
52030;DHT22;38043;53.224;6.580;2023-06-01T06:47:22;11.50;99.90
52030;DHT22;38043;53.224;6.580;2023-06-01T06:49:50;11.50;99.90
52030;DHT22;38043;53.224;6.580;2023-06-01T06:52:16;11.50;99.90
52030;DHT22;38043;53.224;6.580;2023-06-01T06:54:42;11.90;99.90
52030;DHT22;38043;53.224;6.580;2023-06-01T06:57:08;12.00;99.90
52030;DHT22;38043;53.224;6.580;2023-06-01T06:59:33;11.50;99.90
52030;DHT22;38043;53.224;6.580;2023-06-01T07:01:59;11.50;99.90
52030;DHT22;38043;53.224;6.580;2023-06-01T07:04:25;11.50;99.90
52030;DHT22;38043;53.224;6.580;2023-06-01T07:06:50;11.50;99.90
52030;DHT22;38043;53.224;6.580;2023-06-01T07:09:17;11.50;99.90
52030;DHT22;38043;53.224;6.580;2023-06-01T07:11:44;11.50;99.90
52030;DHT22;38043;53.224;6.580;2023-06-01T07:14:10;11.50;99.90
52030;DHT22;38043;53.224;6.580;2023-06-01T07:16:36;11.50;99.90
52030;DHT22;38043;53.224;6.580;2023-06-01T07:19:01;11.60;99.90
52030;DHT22;38043;53.224;6.580;2023-06-01T07:21:28;11.60;99.90
52030;DHT22;38043;53.224;6.580;2023-06-01T07:23:53;11.60;99.90
52030;DHT22;38043;53.224;6.580;2023-06-01T07:26:19;11.60;99.90
52030;DHT22;38043;53.224;6.580;2023-06-01T07:28:45;11.70;99.90
52030;DHT22;38043;53.224;6.580;2023-06-01T07:31:11;11.70;99.90
52030;DHT22;38043;53.224;6.580;2023-06-01T07:33:37;11.70;99.90
52030;DHT22;38043;53.224;6.580;2023-06-01T07:36:02;11.80;99.90
52030;DHT22;38043;53.224;6.580;2023-06-01T07:38:28;11.80;99.90
52030;DHT22;38043;53.224;6.580;2023-06-01T07:40:54;11.80;99.90
52030;DHT22;38043;53.224;6.580;2023-06-01T07:43:20;11.70;99.90
52030;DHT22;38043;53.224;6.580;2023-06-01T07:45:45;11.80;99.90
52030;DHT22;38043;53.224;6.580;2023-06-01T07:48:11;11.80;99.90
52030;DHT22;38043;53.224;6.580;2023-06-01T07:50:36;11.80;99.90
52030;DHT22;38043;53.224;6.580;2023-06-01T07:53:02;11.80;99.90
52030;DHT22;38043;53.224;6.580;2023-06-01T07:55:28;11.80;99.90
52030;DHT22;38043;53.224;6.580;2023-06-01T07:57:53;11.80;99.90
52030;DHT22;38043;53.224;6.580;2023-06-01T08:00:19;11.80;99.90
52030;DHT22;38043;53.224;6.580;2023-06-01T08:02:45;11.80;99.90
52030;DHT22;38043;53.224;6.580;2023-06-01T08:05:11;11.80;99.90
52030;DHT22;38043;53.224;6.580;2023-06-01T08:07:37;11.90;99.90
52030;DHT22;38043;53.224;6.580;2023-06-01T08:10:04;11.90;99.90
52030;DHT22;38043;53.224;6.580;2023-06-01T08:12:31;12.00;99.90
52030;DHT22;38043;53.224;6.580;2023-06-01T08:14:57;12.00;99.90
52030;DHT22;38043;53.224;6.580;2023-06-01T08:17:22;12.00;99.90
52030;DHT22;38043;53.224;6.580;2023-06-01T08:19:48;12.00;99.90
52030;DHT22;38043;53.224;6.580;2023-06-01T08:22:16;12.00;99.90
52030;DHT22;38043;53.224;6.580;2023-06-01T08:24:41;11.90;99.90
52030;DHT22;38043;53.224;6.580;2023-06-01T08:29:44;12.00;99.90
52030;DHT22;38043;53.224;6.580;2023-06-01T08:32:10;12.00;99.90
52030;DHT22;38043;53.224;6.580;2023-06-01T08:34:36;11.90;99.90
52030;DHT22;38043;53.224;6.580;2023-06-01T08:37:02;12.00;99.90
52030;DHT22;38043;53.224;6.580;2023-06-01T08:39:27;11.90;99.90
52030;DHT22;38043;53.224;6.580;2023-06-01T08:42:09;11.90;99.90
52030;DHT22;38043;53.224;6.580;2023-06-01T08:44:38;12.00;99.90
52030;DHT22;38043;53.224;6.580;2023-06-01T08:47:04;12.00;99.90
52030;DHT22;38043;53.224;6.580;2023-06-01T08:49:30;12.10;99.90
52030;DHT22;38043;53.224;6.580;2023-06-01T08:51:56;12.10;99.90
52030;DHT22;38043;53.224;6.580;2023-06-01T08:54:22;12.00;99.90
52030;DHT22;38043;53.224;6.580;2023-06-01T08:56:47;12.00;99.90
52030;DHT22;38043;53.224;6.580;2023-06-01T08:59:13;12.10;99.90
52030;DHT22;38043;53.224;6.580;2023-06-01T09:01:39;12.10;99.90
52030;DHT22;38043;53.224;6.580;2023-06-01T09:04:04;12.20;99.90
52030;DHT22;38043;53.224;6.580;2023-06-01T09:06:30;12.20;99.90
52030;DHT22;38043;53.224;6.580;2023-06-01T09:08:56;12.20;99.90
52030;DHT22;38043;53.224;6.580;2023-06-01T09:11:21;12.10;99.90
52030;DHT22;38043;53.224;6.580;2023-06-01T09:13:47;12.20;99.90
52030;DHT22;38043;53.224;6.580;2023-06-01T09:16:12;12.20;99.90
52030;DHT22;38043;53.224;6.580;2023-06-01T09:18:53;12.20;99.90
52030;DHT22;38043;53.224;6.580;2023-06-01T09:21:19;12.30;99.90
52030;DHT22;38043;53.224;6.580;2023-06-01T09:23:45;12.40;99.90
52030;DHT22;38043;53.224;6.580;2023-06-01T09:26:11;12.40;99.90
52030;DHT22;38043;53.224;6.580;2023-06-01T09:34:03;12.40;99.90
52030;DHT22;38043;53.224;6.580;2023-06-01T09:36:28;12.40;99.90
52030;DHT22;38043;53.224;6.580;2023-06-01T09:39:27;12.40;99.90
52030;DHT22;38043;53.224;6.580;2023-06-01T09:44:13;12.40;99.90
52030;DHT22;38043;53.224;6.580;2023-06-01T09:46:49;12.40;99.90
52030;DHT22;38043;53.224;6.580;2023-06-01T09:49:18;12.40;99.90
52030;DHT22;38043;53.224;6.580;2023-06-01T09:51:45;12.30;99.90
52030;DHT22;38043;53.224;6.580;2023-06-01T09:54:12;12.50;99.90
52030;DHT22;38043;53.224;6.580;2023-06-01T09:56:46;12.50;99.90
52030;DHT22;38043;53.224;6.580;2023-06-01T09:59:11;12.50;99.90
52030;DHT22;38043;53.224;6.580;2023-06-01T10:01:37;12.40;99.90
52030;DHT22;38043;53.224;6.580;2023-06-01T10:04:02;12.50;99.90
52030;DHT22;38043;53.224;6.580;2023-06-01T10:06:31;12.50;99.90
52030;DHT22;38043;53.224;6.580;2023-06-01T10:08:59;12.60;99.90
52030;DHT22;38043;53.224;6.580;2023-06-01T10:11:25;12.60;99.90
52030;DHT22;38043;53.224;6.580;2023-06-01T10:13:52;12.60;99.90
52030;DHT22;38043;53.224;6.580;2023-06-01T10:16:18;12.70;99.90
52030;DHT22;38043;53.224;6.580;2023-06-01T10:18:43;12.70;99.90
52030;DHT22;38043;53.224;6.580;2023-06-01T10:21:10;12.70;99.90
52030;DHT22;38043;53.224;6.580;2023-06-01T10:23:36;12.80;99.90
52030;DHT22;38043;53.224;6.580;2023-06-01T10:26:11;12.80;99.90
52030;DHT22;38043;53.224;6.580;2023-06-01T10:28:37;12.80;99.90
52030;DHT22;38043;53.224;6.580;2023-06-01T10:31:31;12.80;99.90
52030;DHT22;38043;53.224;6.580;2023-06-01T10:33:52;12.90;99.90
52030;DHT22;38043;53.224;6.580;2023-06-01T10:36:21;12.80;99.90
52030;DHT22;38043;53.224;6.580;2023-06-01T10:38:46;12.90;99.90
52030;DHT22;38043;53.224;6.580;2023-06-01T10:41:25;12.90;99.90
52030;DHT22;38043;53.224;6.580;2023-06-01T10:43:51;13.00;99.90
52030;DHT22;38043;53.224;6.580;2023-06-01T10:48:58;13.20;99.90
52030;DHT22;38043;53.224;6.580;2023-06-01T10:51:23;13.20;99.90
52030;DHT22;38043;53.224;6.580;2023-06-01T10:53:50;13.20;99.90
52030;DHT22;38043;53.224;6.580;2023-06-01T10:56:23;13.10;99.90
52030;DHT22;38043;53.224;6.580;2023-06-01T11:01:34;13.10;99.90
52030;DHT22;38043;53.224;6.580;2023-06-01T11:04:00;13.20;99.90
52030;DHT22;38043;53.224;6.580;2023-06-01T11:06:30;13.20;99.90
52030;DHT22;38043;53.224;6.580;2023-06-01T11:08:58;13.20;99.90
52030;DHT22;38043;53.224;6.580;2023-06-01T11:11:25;13.30;99.90
52030;DHT22;38043;53.224;6.580;2023-06-01T11:14:10;13.30;99.90
52030;DHT22;38043;53.224;6.580;2023-06-01T11:16:36;13.40;99.90
52030;DHT22;38043;53.224;6.580;2023-06-01T11:19:03;13.50;99.90
52030;DHT22;38043;53.224;6.580;2023-06-01T11:21:29;13.60;99.90
52030;DHT22;38043;53.224;6.580;2023-06-01T11:23:56;13.60;99.90
52030;DHT22;38043;53.224;6.580;2023-06-01T11:26:23;13.70;99.90
52030;DHT22;38043;53.224;6.580;2023-06-01T11:28:51;13.70;99.90
52030;DHT22;38043;53.224;6.580;2023-06-01T11:31:17;13.70;99.90
52030;DHT22;38043;53.224;6.580;2023-06-01T11:33:48;13.70;99.90
52030;DHT22;38043;53.224;6.580;2023-06-01T11:36:14;13.60;99.90
52030;DHT22;38043;53.224;6.580;2023-06-01T11:38:42;13.60;99.90
52030;DHT22;38043;53.224;6.580;2023-06-01T11:41:08;13.60;99.90
52030;DHT22;38043;53.224;6.580;2023-06-01T11:43:34;13.60;99.90
52030;DHT22;38043;53.224;6.580;2023-06-01T11:46:03;13.40;99.90
52030;DHT22;38043;53.224;6.580;2023-06-01T11:48:29;13.40;99.90
52030;DHT22;38043;53.224;6.580;2023-06-01T11:50:55;13.30;99.90
52030;DHT22;38043;53.224;6.580;2023-06-01T11:53:21;13.20;99.90
52030;DHT22;38043;53.224;6.580;2023-06-01T11:55:48;13.20;99.90
52030;DHT22;38043;53.224;6.580;2023-06-01T11:58:14;13.10;99.90
52030;DHT22;38043;53.224;6.580;2023-06-01T12:00:44;13.20;99.90
52030;DHT22;38043;53.224;6.580;2023-06-01T12:03:11;13.20;99.90
52030;DHT22;38043;53.224;6.580;2023-06-01T12:05:37;13.20;99.90
52030;DHT22;38043;53.224;6.580;2023-06-01T12:08:03;13.20;99.90
52030;DHT22;38043;53.224;6.580;2023-06-01T12:10:30;13.30;99.90
52030;DHT22;38043;53.224;6.580;2023-06-01T12:12:55;13.90;99.90
52030;DHT22;38043;53.224;6.580;2023-06-01T12:15:21;13.30;99.90
52030;DHT22;38043;53.224;6.580;2023-06-01T12:17:47;13.80;99.90
52030;DHT22;38043;53.224;6.580;2023-06-01T12:20:30;13.10;99.90
52030;DHT22;38043;53.224;6.580;2023-06-01T12:22:56;13.20;99.90
52030;DHT22;38043;53.224;6.580;2023-06-01T12:25:22;13.30;99.90
52030;DHT22;38043;53.224;6.580;2023-06-01T12:28:01;13.20;99.90
52030;DHT22;38043;53.224;6.580;2023-06-01T12:30:28;13.20;99.90
52030;DHT22;38043;53.224;6.580;2023-06-01T12:32:53;13.10;99.90
52030;DHT22;38043;53.224;6.580;2023-06-01T12:35:19;13.10;99.90
52030;DHT22;38043;53.224;6.580;2023-06-01T12:38:08;13.10;99.90
52030;DHT22;38043;53.224;6.580;2023-06-01T12:40:35;13.10;99.90
52030;DHT22;38043;53.224;6.580;2023-06-01T12:43:01;13.10;99.90
52030;DHT22;38043;53.224;6.580;2023-06-01T12:45:36;13.10;99.90
52030;DHT22;38043;53.224;6.580;2023-06-01T12:48:02;12.80;99.90
52030;DHT22;38043;53.224;6.580;2023-06-01T12:50:28;12.70;99.90
52030;DHT22;38043;53.224;6.580;2023-06-01T12:52:53;12.70;99.90
52030;DHT22;38043;53.224;6.580;2023-06-01T12:55:19;12.80;99.90
52030;DHT22;38043;53.224;6.580;2023-06-01T12:57:51;12.80;99.90
52030;DHT22;38043;53.224;6.580;2023-06-01T13:00:18;12.70;99.90
52030;DHT22;38043;53.224;6.580;2023-06-01T13:02:44;12.70;99.90
52030;DHT22;38043;53.224;6.580;2023-06-01T13:05:14;12.70;99.90
52030;DHT22;38043;53.224;6.580;2023-06-01T13:07:42;12.60;99.90
52030;DHT22;38043;53.224;6.580;2023-06-01T13:10:08;12.60;99.90
52030;DHT22;38043;53.224;6.580;2023-06-01T13:12:35;12.70;99.90
52030;DHT22;38043;53.224;6.580;2023-06-01T13:15:00;12.70;99.90
52030;DHT22;38043;53.224;6.580;2023-06-01T13:17:26;12.70;99.90
52030;DHT22;38043;53.224;6.580;2023-06-01T13:19:52;12.80;99.90
52030;DHT22;38043;53.224;6.580;2023-06-01T13:22:18;12.80;99.90
52030;DHT22;38043;53.224;6.580;2023-06-01T13:24:44;12.80;99.90
52030;DHT22;38043;53.224;6.580;2023-06-01T13:27:09;13.00;99.90
52030;DHT22;38043;53.224;6.580;2023-06-01T13:29:35;13.10;99.90
52030;DHT22;38043;53.224;6.580;2023-06-01T13:32:01;13.20;99.90
52030;DHT22;38043;53.224;6.580;2023-06-01T13:34:26;13.60;99.90
52030;DHT22;38043;53.224;6.580;2023-06-01T13:36:52;13.50;99.90
52030;DHT22;38043;53.224;6.580;2023-06-01T13:39:17;13.40;99.90
52030;DHT22;38043;53.224;6.580;2023-06-01T13:41:43;13.50;99.90
52030;DHT22;38043;53.224;6.580;2023-06-01T13:44:08;13.40;99.90
52030;DHT22;38043;53.224;6.580;2023-06-01T13:46:34;13.40;99.90
52030;DHT22;38043;53.224;6.580;2023-06-01T13:48:59;13.40;99.90
52030;DHT22;38043;53.224;6.580;2023-06-01T13:51:25;13.30;99.90
52030;DHT22;38043;53.224;6.580;2023-06-01T13:53:50;13.20;99.90
52030;DHT22;38043;53.224;6.580;2023-06-01T13:56:16;13.20;99.90
52030;DHT22;38043;53.224;6.580;2023-06-01T13:58:41;13.10;99.90
52030;DHT22;38043;53.224;6.580;2023-06-01T14:01:07;13.00;99.90
52030;DHT22;38043;53.224;6.580;2023-06-01T14:03:32;13.00;99.90
52030;DHT22;38043;53.224;6.580;2023-06-01T14:05:58;13.00;99.90
52030;DHT22;38043;53.224;6.580;2023-06-01T14:08:23;13.10;99.90
52030;DHT22;38043;53.224;6.580;2023-06-01T14:10:50;13.00;99.90
52030;DHT22;38043;53.224;6.580;2023-06-01T14:13:15;13.10;99.90
52030;DHT22;38043;53.224;6.580;2023-06-01T14:15:42;13.50;99.90
52030;DHT22;38043;53.224;6.580;2023-06-01T14:18:07;13.00;99.90
52030;DHT22;38043;53.224;6.580;2023-06-01T14:20:34;13.10;99.90
52030;DHT22;38043;53.224;6.580;2023-06-01T14:23:00;13.20;99.90
52030;DHT22;38043;53.224;6.580;2023-06-01T14:25:26;13.20;99.90
52030;DHT22;38043;53.224;6.580;2023-06-01T14:27:51;13.30;99.90
52030;DHT22;38043;53.224;6.580;2023-06-01T14:30:20;13.40;99.90
52030;DHT22;38043;53.224;6.580;2023-06-01T14:32:46;13.40;99.90
52030;DHT22;38043;53.224;6.580;2023-06-01T14:35:11;13.40;99.90
52030;DHT22;38043;53.224;6.580;2023-06-01T14:37:41;13.30;99.90
52030;DHT22;38043;53.224;6.580;2023-06-01T14:40:07;13.30;99.90
52030;DHT22;38043;53.224;6.580;2023-06-01T14:42:33;13.30;99.90
52030;DHT22;38043;53.224;6.580;2023-06-01T14:44:58;13.40;99.90
52030;DHT22;38043;53.224;6.580;2023-06-01T14:47:24;13.50;99.90
52030;DHT22;38043;53.224;6.580;2023-06-01T14:49:50;13.50;99.90
52030;DHT22;38043;53.224;6.580;2023-06-01T14:52:15;13.40;99.90
52030;DHT22;38043;53.224;6.580;2023-06-01T14:54:41;13.40;99.90
52030;DHT22;38043;53.224;6.580;2023-06-01T14:57:07;13.30;99.90
52030;DHT22;38043;53.224;6.580;2023-06-01T14:59:32;13.30;99.90
52030;DHT22;38043;53.224;6.580;2023-06-01T15:02:02;13.20;99.90
52030;DHT22;38043;53.224;6.580;2023-06-01T15:04:29;13.10;99.90
52030;DHT22;38043;53.224;6.580;2023-06-01T15:06:54;13.00;99.90
52030;DHT22;38043;53.224;6.580;2023-06-01T15:09:20;12.90;99.90
52030;DHT22;38043;53.224;6.580;2023-06-01T15:11:45;13.00;99.90
52030;DHT22;38043;53.224;6.580;2023-06-01T15:14:11;13.10;99.90
52030;DHT22;38043;53.224;6.580;2023-06-01T15:16:37;13.20;99.90
52030;DHT22;38043;53.224;6.580;2023-06-01T15:19:02;13.20;99.90
52030;DHT22;38043;53.224;6.580;2023-06-01T15:21:28;13.30;99.90
52030;DHT22;38043;53.224;6.580;2023-06-01T15:23:53;13.40;99.90
52030;DHT22;38043;53.224;6.580;2023-06-01T15:26:19;13.40;99.90
52030;DHT22;38043;53.224;6.580;2023-06-01T15:28:45;13.40;99.90
52030;DHT22;38043;53.224;6.580;2023-06-01T15:31:10;13.30;99.90
52030;DHT22;38043;53.224;6.580;2023-06-01T15:33:36;13.20;99.90
52030;DHT22;38043;53.224;6.580;2023-06-01T15:36:01;13.20;99.90
52030;DHT22;38043;53.224;6.580;2023-06-01T15:38:27;13.20;99.90
52030;DHT22;38043;53.224;6.580;2023-06-01T15:40:53;13.90;99.90
52030;DHT22;38043;53.224;6.580;2023-06-01T15:43:18;13.20;99.90
52030;DHT22;38043;53.224;6.580;2023-06-01T15:45:44;13.20;99.90
52030;DHT22;38043;53.224;6.580;2023-06-01T15:48:09;13.40;99.90
52030;DHT22;38043;53.224;6.580;2023-06-01T15:50:35;13.20;99.90
52030;DHT22;38043;53.224;6.580;2023-06-01T15:53:01;13.40;99.90